Time;durP1;ratioP1;P1;durP2;ratioP2;P2;SDS_P1;SDS_P2;PMS_P1;PMS_P2;Temp;Humidity;BMP_temperature;BMP_pressure;BME280_temperature;BME280_humidity;BME280_pressure;Samples;Min_cycle;Max_cycle;Signal;HPM_P1;HPM_P2
2023/07/20 00:02:23;;;;;;;2.85;1.20;;;17.00;32.80;;;;;;4974468;28;20184;-78
2023/07/20 00:04:49;;;;;;;0.93;0.80;;;16.90;34.50;;;;;;4993742;28;20225;-77
2023/07/20 00:07:15;;;;;;;1.45;0.77;;;16.90;42.90;;;;;;4992997;28;20220;-77
2023/07/20 00:09:40;;;;;;;1.13;0.80;;;16.70;55.00;;;;;;4999476;28;20183;-76
2023/07/20 00:12:07;;;;;;;1.88;0.93;;;16.60;83.90;;;;;;4994510;28;20701;-78
2023/07/20 00:14:32;;;;;;;3.63;1.00;;;16.60;99.90;;;;;;4976359;28;20218;-78
2023/07/20 00:16:58;;;;;;;0.93;0.80;;;16.70;99.90;;;;;;4996649;28;20183;-78
2023/07/20 00:19:25;;;;;;;1.65;0.90;;;16.70;94.80;;;;;;4979631;28;20585;-78
2023/07/20 00:21:51;;;;;;;2.28;1.38;;;16.60;91.30;;;;;;4996865;28;20184;-77
2023/07/20 00:24:17;;;;;;;2.47;0.85;;;16.60;99.90;;;;;;4994084;28;20243;-76
2023/07/20 00:26:43;;;;;;;1.58;0.98;;;16.60;99.90;;;;;;4993376;28;20614;-77
2023/07/20 00:29:09;;;;;;;1.88;0.98;;;16.60;99.90;;;;;;4993200;28;20180;-79
2023/07/20 00:31:36;;;;;;;1.92;0.90;;;16.60;99.90;;;;;;4993815;28;20235;-77
2023/07/20 00:34:05;;;;;;;2.05;1.02;;;16.70;99.90;;;;;;4975963;28;20187;-76
2023/07/20 00:36:31;;;;;;;1.55;0.82;;;16.70;99.90;;;;;;4994798;28;20194;-78
2023/07/20 00:38:57;;;;;;;1.00;0.95;;;16.70;99.90;;;;;;4995780;28;20176;-77
2023/07/20 00:41:22;;;;;;;1.80;1.00;;;16.70;99.90;;;;;;4994071;28;20180;-75
2023/07/20 00:43:48;;;;;;;2.38;1.23;;;16.60;99.90;;;;;;4996559;28;20220;-78
2023/07/20 00:46:14;;;;;;;2.58;1.20;;;16.50;99.90;;;;;;4996401;28;20208;-78
2023/07/20 00:48:41;;;;;;;1.40;1.20;;;16.50;99.90;;;;;;4979912;28;20282;-77
2023/07/20 00:51:07;;;;;;;1.88;1.30;;;16.50;99.90;;;;;;4995891;28;20207;-79
2023/07/20 00:53:33;;;;;;;1.77;1.10;;;16.60;99.90;;;;;;4995353;28;20188;-77
2023/07/20 00:55:58;;;;;;;1.20;0.80;;;16.50;99.90;;;;;;4990096;28;20200;-76
2023/07/20 00:58:24;;;;;;;1.92;0.82;;;16.40;99.90;;;;;;4979582;28;20728;-79
2023/07/20 01:00:50;;;;;;;1.35;0.90;;;16.40;99.90;;;;;;4999513;28;20188;-80
2023/07/20 01:03:16;;;;;;;2.03;0.90;;;16.40;99.90;;;;;;4997583;28;20222;-77
2023/07/20 01:05:48;;;;;;;1.40;0.93;;;16.20;99.90;;;;;;4981812;28;20223;-79
2023/07/20 01:08:34;;;;;;;2.60;1.00;;;16.20;99.90;;;;;;5001676;28;20223;-77
2023/07/20 01:11:24;;;;;;;1.38;0.88;;;16.20;99.90;;;;;;4994777;28;20187;-80
2023/07/20 01:13:50;;;;;;;1.20;1.10;;;16.20;99.90;;;;;;4979177;28;20276;-77
2023/07/20 01:16:16;;;;;;;1.88;0.90;;;16.20;99.90;;;;;;4981385;28;20239;-78
2023/07/20 01:18:41;;;;;;;2.58;1.02;;;16.20;99.90;;;;;;4997774;28;20613;-78
2023/07/20 01:21:13;;;;;;;1.70;1.00;;;16.30;99.90;;;;;;4996667;28;20215;-78
2023/07/20 01:24:03;;;;;;;2.97;0.93;;;16.20;99.90;;;;;;5000134;28;20187;-79
2023/07/20 01:27:01;;;;;;;0.80;0.80;;;16.30;99.90;;;;;;4982555;28;20552;-77
2023/07/20 01:29:57;;;;;;;1.73;1.00;;;16.30;99.90;;;;;;4993661;28;20208;-76
2023/07/20 01:32:25;;;;;;;1.15;1.05;;;16.30;99.90;;;;;;4998098;28;20188;-79
2023/07/20 01:34:54;;;;;;;1.45;0.90;;;16.20;99.90;;;;;;4997388;28;20200;-77
2023/07/20 01:37:25;;;;;;;2.08;1.13;;;16.30;99.90;;;;;;4999942;28;20187;-79
2023/07/20 01:39:54;;;;;;;2.15;0.95;;;16.30;99.90;;;;;;5000418;28;20235;-76
2023/07/20 01:42:22;;;;;;;2.08;0.90;;;16.20;99.90;;;;;;4997163;28;20225;-78
2023/07/20 01:44:47;;;;;;;1.75;1.00;;;16.10;99.90;;;;;;5000884;28;20295;-77
2023/07/20 01:47:13;;;;;;;1.40;0.80;;;16.10;99.90;;;;;;5003032;28;20334;-78
2023/07/20 01:49:38;;;;;;;1.40;0.85;;;16.10;99.90;;;;;;4998466;28;20187;-77
2023/07/20 01:52:04;;;;;;;2.33;1.17;;;16.20;99.90;;;;;;4999154;28;20279;-78
2023/07/20 01:54:30;;;;;;;1.38;0.80;;;16.10;99.90;;;;;;4993241;28;20235;-79
2023/07/20 01:56:56;;;;;;;1.67;1.00;;;16.10;99.90;;;;;;4994509;28;20525;-78
2023/07/20 01:59:21;;;;;;;1.13;0.90;;;16.10;99.90;;;;;;4978212;28;20766;-78
2023/07/20 02:01:47;;;;;;;1.58;1.00;;;16.20;99.90;;;;;;5000568;28;20787;-79
2023/07/20 02:04:13;;;;;;;1.83;1.17;;;16.20;99.90;;;;;;4994478;28;20225;-78
2023/07/20 02:06:38;;;;;;;2.08;1.20;;;16.20;99.90;;;;;;4999573;28;20191;-78
2023/07/20 02:09:04;;;;;;;3.33;0.95;;;16.20;99.90;;;;;;4994767;28;20222;-79
2023/07/20 02:11:29;;;;;;;1.10;1.00;;;16.20;99.90;;;;;;4994198;28;20188;-77
2023/07/20 02:13:55;;;;;;;3.13;0.90;;;16.20;99.90;;;;;;4991774;28;20592;-78
2023/07/20 02:16:21;;;;;;;0.90;0.90;;;16.20;99.90;;;;;;4996828;28;20216;-77
2023/07/20 02:18:46;;;;;;;1.83;0.98;;;16.30;99.90;;;;;;4980291;28;20246;-77
2023/07/20 02:21:12;;;;;;;1.40;0.98;;;16.30;99.90;;;;;;4998968;28;20241;-76
2023/07/20 02:23:37;;;;;;;2.40;1.00;;;16.30;99.90;;;;;;4997851;28;20194;-78
2023/07/20 02:26:03;;;;;;;1.50;0.95;;;16.30;99.90;;;;;;4999781;28;20295;-77
2023/07/20 02:28:29;;;;;;;1.23;0.80;;;16.30;99.90;;;;;;4994436;28;20204;-77
2023/07/20 02:30:54;;;;;;;1.63;1.00;;;16.40;99.90;;;;;;5000040;28;20184;-80
2023/07/20 02:33:20;;;;;;;1.08;0.95;;;16.30;99.90;;;;;;4996738;28;20216;-77
2023/07/20 02:35:46;;;;;;;2.25;0.98;;;16.20;99.90;;;;;;4984141;28;20258;-77
2023/07/20 02:38:12;;;;;;;2.08;1.02;;;16.20;99.90;;;;;;4999058;28;20187;-77
2023/07/20 02:40:37;;;;;;;2.45;1.20;;;16.10;99.90;;;;;;4995527;28;20597;-77
2023/07/20 02:43:03;;;;;;;0.85;0.85;;;16.10;99.90;;;;;;4979914;28;20963;-78
2023/07/20 02:45:29;;;;;;;1.60;0.80;;;16.10;99.90;;;;;;4998106;28;20207;-78
2023/07/20 02:47:54;;;;;;;1.05;0.98;;;16.20;99.90;;;;;;4993173;28;20207;-79
2023/07/20 02:50:20;;;;;;;1.80;0.82;;;16.10;99.90;;;;;;4974868;28;20639;-79
2023/07/20 02:52:46;;;;;;;1.98;1.00;;;16.00;99.90;;;;;;4999490;28;20191;-79
2023/07/20 02:55:11;;;;;;;0.82;0.80;;;16.00;99.90;;;;;;4996091;28;20703;-78
2023/07/20 02:57:37;;;;;;;1.15;0.80;;;16.00;99.90;;;;;;4996823;28;20184;-79
2023/07/20 03:00:05;;;;;;;1.83;0.98;;;16.00;99.90;;;;;;5001344;28;20192;-77
2023/07/20 03:02:31;;;;;;;1.52;0.90;;;15.90;99.90;;;;;;4995423;28;20674;-77
2023/07/20 03:05:00;;;;;;;1.67;0.85;;;15.90;99.90;;;;;;4993249;28;20254;-78
2023/07/20 03:07:28;;;;;;;0.90;0.90;;;15.90;99.90;;;;;;5001102;28;20604;-77
2023/07/20 03:09:55;;;;;;;1.75;0.90;;;15.90;99.90;;;;;;5002262;28;20183;-77
2023/07/20 03:12:21;;;;;;;1.00;0.80;;;16.00;99.90;;;;;;4981414;28;20184;-77
2023/07/20 03:14:47;;;;;;;1.27;0.90;;;15.90;99.90;;;;;;4993169;28;20230;-77
2023/07/20 03:17:12;;;;;;;1.02;0.93;;;16.00;99.90;;;;;;4997198;28;20650;-78
2023/07/20 03:19:38;;;;;;;0.90;0.70;;;16.00;99.90;;;;;;4992929;28;20602;-79
2023/07/20 03:22:04;;;;;;;1.00;0.80;;;16.00;99.90;;;;;;4996536;28;20525;-79
2023/07/20 03:24:29;;;;;;;1.23;0.80;;;16.00;99.90;;;;;;4998663;28;20218;-78
2023/07/20 03:26:55;;;;;;;1.42;0.98;;;16.10;99.90;;;;;;4994687;28;20878;-77
2023/07/20 03:29:21;;;;;;;1.77;0.93;;;16.10;1.00;;;;;;4988851;28;20184;-78
2023/07/20 03:31:46;;;;;;;1.10;1.00;;;16.10;99.90;;;;;;4979821;28;20221;-77
2023/07/20 03:34:12;;;;;;;1.35;0.80;;;16.00;99.90;;;;;;4999153;28;20184;-79
2023/07/20 03:36:37;;;;;;;0.93;0.80;;;16.00;99.90;;;;;;4979420;28;20217;-78
2023/07/20 03:39:03;;;;;;;5.60;0.93;;;16.00;99.90;;;;;;4995831;28;20283;-80
2023/07/20 03:41:29;;;;;;;1.05;0.80;;;16.00;99.90;;;;;;4996931;28;20180;-78
2023/07/20 03:43:54;;;;;;;1.40;0.80;;;15.90;99.90;;;;;;4987564;28;20192;-77
2023/07/20 03:46:20;;;;;;;1.42;1.10;;;15.90;99.90;;;;;;4996632;28;20569;-76
2023/07/20 03:48:46;;;;;;;1.67;1.02;;;15.90;99.90;;;;;;4996427;28;20227;-78
2023/07/20 03:51:11;;;;;;;1.35;0.90;;;16.00;99.90;;;;;;4994638;28;20234;-78
2023/07/20 03:53:37;;;;;;;1.48;1.00;;;16.00;99.90;;;;;;4993205;28;20273;-77
2023/07/20 03:56:03;;;;;;;1.70;1.08;;;16.10;1.00;;;;;;4997183;28;20203;-78
2023/07/20 03:58:30;;;;;;;1.52;1.00;;;;;;;;;;5000683;28;20184;-78
2023/07/20 04:00:57;;;;;;;1.20;0.90;;;16.30;99.90;;;;;;4991913;28;20180;-79
2023/07/20 04:03:24;;;;;;;0.90;0.82;;;16.20;99.90;;;;;;4994576;28;20670;-79
2023/07/20 04:05:50;;;;;;;0.85;0.85;;;16.10;99.90;;;;;;4997144;28;20220;-78
2023/07/20 04:08:16;;;;;;;1.00;0.90;;;16.10;99.90;;;;;;4996796;28;20199;-77
2023/07/20 04:10:44;;;;;;;1.60;1.13;;;16.10;99.90;;;;;;4996058;28;20842;-77
2023/07/20 04:13:10;;;;;;;0.90;0.90;;;16.10;99.90;;;;;;4996909;28;20191;-78
2023/07/20 04:15:36;;;;;;;0.85;0.82;;;16.20;99.90;;;;;;4995261;28;20208;-77
2023/07/20 04:18:02;;;;;;;1.10;1.00;;;16.20;99.90;;;;;;4978064;28;20191;-77
2023/07/20 04:20:27;;;;;;;1.40;0.90;;;16.30;99.90;;;;;;4984368;28;20184;-77
2023/07/20 04:22:53;;;;;;;0.93;0.80;;;16.30;99.90;;;;;;4995110;28;20670;-76
2023/07/20 04:25:19;;;;;;;0.80;0.80;;;16.20;99.90;;;;;;4978364;28;20208;-78
2023/07/20 04:27:45;;;;;;;1.13;1.00;;;16.30;99.90;;;;;;4993754;28;20706;-76
2023/07/20 04:30:11;;;;;;;0.80;0.80;;;16.30;99.90;;;;;;4979366;28;20274;-76
2023/07/20 04:32:38;;;;;;;1.17;1.08;;;16.30;99.90;;;;;;4993463;28;20212;-77
2023/07/20 04:35:07;;;;;;;1.23;0.90;;;16.30;99.90;;;;;;4996616;28;20207;-76
2023/07/20 04:37:33;;;;;;;1.35;1.13;;;16.40;99.90;;;;;;4997088;28;20185;-77
2023/07/20 04:39:59;;;;;;;2.30;0.90;;;16.50;99.90;;;;;;4996076;28;20194;-77
2023/07/20 04:42:25;;;;;;;0.80;0.73;;;16.60;99.90;;;;;;4996410;28;20195;-77
2023/07/20 04:44:51;;;;;;;0.95;0.70;;;16.60;99.90;;;;;;4997159;28;20239;-77
2023/07/20 04:47:17;;;;;;;1.20;1.10;;;16.70;99.90;;;;;;4992856;28;20295;-78
2023/07/20 04:49:42;;;;;;;1.95;0.90;;;16.60;99.90;;;;;;4995079;28;20266;-77
2023/07/20 04:52:08;;;;;;;1.00;0.82;;;16.60;99.90;;;;;;4982784;28;21021;-76
2023/07/20 04:54:34;;;;;;;1.60;0.98;;;16.60;99.90;;;;;;4993923;28;20293;-77
2023/07/20 04:56:59;;;;;;;1.20;0.90;;;16.70;99.90;;;;;;4994223;28;20647;-77
2023/07/20 04:59:26;;;;;;;2.28;1.20;;;16.80;99.90;;;;;;4994138;28;20203;-78
2023/07/20 05:01:52;;;;;;;1.38;0.98;;;16.80;99.90;;;;;;4991952;28;20551;-78
2023/07/20 05:04:18;;;;;;;1.95;1.08;;;17.00;99.90;;;;;;4994314;28;20187;-77
2023/07/20 05:06:43;;;;;;;1.25;1.10;;;17.20;99.90;;;;;;4998214;28;20572;-77
2023/07/20 05:09:09;;;;;;;1.17;0.95;;;17.40;95.90;;;;;;4993911;28;20192;-78
2023/07/20 05:11:35;;;;;;;0.93;0.70;;;18.30;59.30;;;;;;4992501;28;20192;-76
2023/07/20 05:14:00;;;;;;;1.38;0.90;;;20.20;1.00;;;;;;4974364;28;20176;-79
2023/07/20 05:16:26;;;;;;;1.17;0.60;;;21.60;1.00;;;;;;4995186;28;20647;-79
2023/07/20 05:18:57;;;;;;;1.20;0.70;;;21.60;1.00;;;;;;4991610;28;21134;-77
2023/07/20 05:21:22;;;;;;;1.30;0.70;;;22.30;1.00;;;;;;4995647;28;20231;-76
2023/07/20 05:23:48;;;;;;;1.50;0.80;;;22.10;1.00;;;;;;4996422;28;20195;-77
2023/07/20 05:26:14;;;;;;;1.10;0.80;;;21.10;1.00;;;;;;4993769;28;20630;-77
2023/07/20 05:28:39;;;;;;;1.38;0.75;;;20.40;1.00;;;;;;4978788;28;20219;-76
2023/07/20 05:31:06;;;;;;;0.65;0.65;;;20.10;1.00;;;;;;4996913;28;20560;-77
2023/07/20 05:33:32;;;;;;;1.30;0.70;;;19.90;1.00;;;;;;4992474;28;20289;-76
2023/07/20 05:35:57;;;;;;;0.95;0.60;;;19.70;1.00;;;;;;4974542;28;20207;-77
2023/07/20 05:38:23;;;;;;;1.55;0.75;;;19.30;1.00;;;;;;4992977;28;20192;-74
2023/07/20 05:40:49;;;;;;;0.95;0.90;;;18.90;1.00;;;;;;4993968;28;20195;-76
2023/07/20 05:43:14;;;;;;;1.98;0.90;;;18.70;1.00;;;;;;4992105;28;20196;-79
2023/07/20 05:45:44;;;;;;;0.85;0.85;;;18.40;1.00;;;;;;4980494;28;20210;-77
2023/07/20 05:48:11;;;;;;;1.58;1.10;;;18.20;1.00;;;;;;4997738;28;20298;-77
2023/07/20 05:50:37;;;;;;;2.53;0.93;;;18.00;1.00;;;;;;4998112;28;20532;-78
2023/07/20 05:53:03;;;;;;;3.08;1.20;;;17.90;1.00;;;;;;4997631;28;20253;-77
2023/07/20 05:55:29;;;;;;;1.38;1.02;;;17.80;1.00;;;;;;4997852;28;20675;-77
2023/07/20 05:57:55;;;;;;;1.50;1.10;;;17.80;1.00;;;;;;4998198;28;20219;-79
2023/07/20 06:00:26;;;;;;;2.50;1.10;;;17.60;1.00;;;;;;4998857;28;20530;-78
2023/07/20 06:02:53;;;;;;;1.20;1.10;;;17.50;99.90;;;;;;4976819;28;20249;-78
2023/07/20 06:05:20;;;;;;;1.30;1.20;;;17.40;99.90;;;;;;4998447;28;20719;-77
2023/07/20 06:07:45;;;;;;;3.05;1.38;;;17.40;99.90;;;;;;4995103;28;20219;-77
2023/07/20 06:10:11;;;;;;;1.75;1.65;;;17.40;99.90;;;;;;4995427;28;20271;-77
2023/07/20 06:12:36;;;;;;;2.83;1.58;;;17.30;99.90;;;;;;4994686;28;20218;-77
2023/07/20 06:15:06;;;;;;;1.65;1.55;;;17.30;1.00;;;;;;4998743;28;20200;-76
2023/07/20 06:17:32;;;;;;;3.15;1.90;;;17.10;1.00;;;;;;4996466;28;20191;-76
2023/07/20 06:19:58;;;;;;;1.67;1.58;;;17.00;1.00;;;;;;4982668;28;20282;-76
2023/07/20 06:22:24;;;;;;;2.33;1.85;;;17.00;1.00;;;;;;4978270;28;20625;-77
2023/07/20 06:24:49;;;;;;;1.92;1.83;;;17.00;1.00;;;;;;5000387;28;20235;-76
2023/07/20 06:27:16;;;;;;;2.25;1.83;;;17.10;1.00;;;;;;4990101;28;20212;-76
2023/07/20 06:29:42;;;;;;;1.95;1.85;;;17.20;1.00;;;;;;4996393;28;20188;-77
2023/07/20 06:32:08;;;;;;;2.20;2.00;;;17.20;1.00;;;;;;4999256;28;20187;-76
2023/07/20 06:34:36;;;;;;;1.77;1.67;;;17.20;1.00;;;;;;4997359;28;20259;-77
2023/07/20 06:37:03;;;;;;;1.73;1.48;;;17.20;1.00;;;;;;4978861;28;20230;-78
2023/07/20 06:39:30;;;;;;;2.20;2.00;;;17.10;99.90;;;;;;4998305;28;20195;-77
2023/07/20 06:41:55;;;;;;;2.70;1.77;;;17.10;1.00;;;;;;4995239;28;20184;-77
2023/07/20 06:44:21;;;;;;;2.58;2.22;;;17.20;1.00;;;;;;5000163;28;20230;-77
2023/07/20 06:46:47;;;;;;;3.42;1.77;;;17.20;1.00;;;;;;4992618;28;20188;-77
2023/07/20 06:49:27;;;;;;;1.70;1.60;;;17.30;1.00;;;;;;4977031;28;20235;-76
2023/07/20 06:51:53;;;;;;;2.75;1.80;;;17.30;1.00;;;;;;4998433;28;20266;-76
2023/07/20 06:54:18;;;;;;;2.97;1.60;;;17.30;1.00;;;;;;4992045;28;20227;-76
2023/07/20 06:56:44;;;;;;;1.27;1.17;;;17.40;1.00;;;;;;4996422;28;20265;-77
2023/07/20 06:59:10;;;;;;;1.80;1.40;;;17.40;99.90;;;;;;4999612;28;20187;-76
2023/07/20 07:01:35;;;;;;;1.70;1.10;;;17.40;99.90;;;;;;4998277;28;21330;-77
2023/07/20 07:04:01;;;;;;;1.55;1.20;;;17.60;99.90;;;;;;4998516;28;20179;-76
2023/07/20 07:06:27;;;;;;;1.65;1.10;;;17.60;99.90;;;;;;4998127;28;20200;-76
2023/07/20 07:08:53;;;;;;;1.30;1.20;;;17.60;99.90;;;;;;4996068;28;20208;-76
2023/07/20 07:11:20;;;;;;;2.70;1.20;;;17.40;99.90;;;;;;4999747;28;20195;-75
2023/07/20 07:13:46;;;;;;;1.48;1.20;;;17.40;99.90;;;;;;4998394;28;20180;-76
2023/07/20 07:16:14;;;;;;;1.63;1.52;;;17.20;99.90;;;;;;4998662;28;20649;-76
2023/07/20 07:18:40;;;;;;;2.35;1.33;;;17.10;1.00;;;;;;4994514;28;20180;-78
2023/07/20 07:21:06;;;;;;;2.03;1.70;;;17.10;1.00;;;;;;4995419;28;20198;-74
2023/07/20 07:23:31;;;;;;;2.47;1.60;;;17.00;99.90;;;;;;4980688;28;20200;-78
2023/07/20 07:25:57;;;;;;;1.95;1.75;;;16.90;1.00;;;;;;4996712;28;20266;-77
2023/07/20 07:28:23;;;;;;;2.00;1.80;;;16.80;1.00;;;;;;4997674;28;20638;-78
2023/07/20 07:30:48;;;;;;;2.90;1.90;;;16.80;1.00;;;;;;4998245;28;20215;-76
2023/07/20 07:33:14;;;;;;;2.65;1.90;;;16.90;1.00;;;;;;4999694;28;20180;-77
2023/07/20 07:35:40;;;;;;;3.15;2.78;;;16.80;1.00;;;;;;4995467;28;20914;-76
2023/07/20 07:38:06;;;;;;;3.40;3.10;;;16.80;1.00;;;;;;4995003;28;20199;-76
2023/07/20 07:40:32;;;;;;;3.00;2.80;;;16.90;1.00;;;;;;4981713;28;20192;-76
2023/07/20 07:42:58;;;;;;;2.95;2.55;;;17.10;99.90;;;;;;4999134;28;20187;-76
2023/07/20 07:45:23;;;;;;;2.70;2.50;;;17.10;1.00;;;;;;4972368;28;20238;-75
2023/07/20 07:47:49;;;;;;;2.05;1.85;;;17.10;1.00;;;;;;4994882;28;20211;-77
2023/07/20 07:50:15;;;;;;;3.88;2.88;;;17.00;1.00;;;;;;4987300;28;20203;-76
2023/07/20 07:52:40;;;;;;;3.78;2.83;;;17.00;1.00;;;;;;4997907;28;20266;-77
2023/07/20 07:55:06;;;;;;;2.50;2.30;;;17.00;99.90;;;;;;4993835;28;20282;-77
2023/07/20 07:57:32;;;;;;;2.30;2.10;;;17.10;1.00;;;;;;4994442;28;20196;-76
2023/07/20 07:59:58;;;;;;;2.47;2.03;;;17.20;1.00;;;;;;4995839;28;20195;-76
2023/07/20 08:02:23;;;;;;;2.13;1.92;;;17.30;1.00;;;;;;4997769;28;20188;-77
2023/07/20 08:04:51;;;;;;;2.47;1.73;;;17.40;1.00;;;;;;4997717;28;20717;-77
2023/07/20 08:07:17;;;;;;;1.85;1.75;;;17.50;1.00;;;;;;4998440;28;20670;-77
2023/07/20 08:09:43;;;;;;;1.92;1.50;;;17.70;1.00;;;;;;4998393;28;20688;-77
2023/07/20 08:12:09;;;;;;;1.40;1.30;;;17.50;99.90;;;;;;4996847;28;20259;-77
2023/07/20 08:14:34;;;;;;;1.40;1.30;;;17.50;99.90;;;;;;4996611;28;20222;-76
2023/07/20 08:17:00;;;;;;;1.55;1.45;;;17.30;99.90;;;;;;4997528;28;20190;-76
2023/07/20 08:19:26;;;;;;;1.48;1.38;;;17.40;1.00;;;;;;4994979;28;20184;-75
2023/07/20 08:21:51;;;;;;;1.00;0.90;;;17.50;1.00;;;;;;4979606;28;20660;-77
2023/07/20 08:24:17;;;;;;;1.75;1.10;;;17.60;1.00;;;;;;4997726;28;20194;-76
2023/07/20 08:26:43;;;;;;;1.42;1.33;;;17.80;1.00;;;;;;4998766;28;20222;-76
2023/07/20 08:29:08;;;;;;;1.88;1.20;;;18.10;99.90;;;;;;4994017;28;20278;-77
2023/07/20 08:31:34;;;;;;;1.35;1.20;;;18.40;99.90;;;;;;4993084;28;20651;-75
2023/07/20 08:33:59;;;;;;;1.30;1.20;;;18.60;99.90;;;;;;4990821;28;20275;-76
2023/07/20 08:36:26;;;;;;;1.48;1.38;;;18.80;99.90;;;;;;4990206;28;20192;-78
2023/07/20 08:38:51;;;;;;;1.42;1.08;;;18.80;99.90;;;;;;4991332;28;20245;-76
2023/07/20 08:41:18;;;;;;;1.20;1.10;;;18.90;99.90;;;;;;4978918;28;20176;-77
2023/07/20 08:43:46;;;;;;;1.60;1.50;;;18.70;99.90;;;;;;4994678;28;20651;-76
2023/07/20 08:46:14;;;;;;;1.63;1.20;;;18.60;99.90;;;;;;4978455;28;20587;-75
2023/07/20 08:48:41;;;;;;;1.85;1.63;;;18.40;99.90;;;;;;4995090;28;20215;-77
2023/07/20 08:51:07;;;;;;;1.20;1.10;;;18.50;99.90;;;;;;4993893;28;20180;-76
2023/07/20 08:53:34;;;;;;;2.67;1.42;;;18.60;99.90;;;;;;4995007;28;20193;-76
2023/07/20 08:56:01;;;;;;;1.30;1.20;;;18.60;99.90;;;;;;4996718;28;20204;-76
2023/07/20 08:58:28;;;;;;;1.35;1.15;;;19.00;99.90;;;;;;4978607;28;20180;-75
2023/07/20 09:00:55;;;;;;;2.75;1.13;;;19.30;88.10;;;;;;4978553;28;20196;-74
2023/07/20 09:03:21;;;;;;;1.30;1.20;;;19.60;58.30;;;;;;4976454;28;20189;-75
2023/07/20 09:05:47;;;;;;;1.45;1.25;;;19.10;1.00;;;;;;4974817;28;20223;-76
2023/07/20 09:08:12;;;;;;;1.10;1.00;;;18.80;20.10;;;;;;4987618;28;20211;-74
2023/07/20 09:10:39;;;;;;;0.90;0.90;;;18.40;42.30;;;;;;4989951;28;20237;-75
2023/07/20 09:13:04;;;;;;;1.25;1.00;;;18.60;39.40;;;;;;4988881;28;20187;-76
2023/07/20 09:15:30;;;;;;;0.88;0.80;;;18.70;36.10;;;;;;4990424;28;20274;-75
2023/07/20 09:17:56;;;;;;;0.80;0.60;;;18.90;1.00;;;;;;4989537;28;20294;-76
2023/07/20 09:20:22;;;;;;;0.80;0.80;;;18.50;1.00;;;;;;4993258;28;20275;-76
2023/07/20 09:22:49;;;;;;;1.10;0.80;;;18.70;1.00;;;;;;4993988;28;20237;-75
2023/07/20 09:25:20;;;;;;;1.50;0.90;;;18.70;1.00;;;;;;4972508;28;20683;-75
2023/07/20 09:27:47;;;;;;;1.20;0.90;;;18.30;1.00;;;;;;4992220;28;20314;-76
2023/07/20 09:30:17;;;;;;;1.20;1.10;;;18.10;1.00;;;;;;4992119;28;20195;-76
2023/07/20 09:32:44;;;;;;;1.05;0.65;;;18.30;1.00;;;;;;4999769;28;20179;-76
2023/07/20 09:35:15;;;;;;;1.17;0.70;;;18.60;1.00;;;;;;4999508;28;20200;-76
2023/07/20 09:37:54;;;;;;;0.77;0.68;;;19.00;1.00;;;;;;4998694;28;20216;-74
2023/07/20 09:40:20;;;;;;;0.55;0.55;;;19.40;1.00;;;;;;4983854;28;20728;-75
2023/07/20 09:42:46;;;;;;;1.27;0.90;;;19.70;1.00;;;;;;5001671;28;20203;-76
2023/07/20 09:45:12;;;;;;;1.42;0.85;;;20.00;1.00;;;;;;4997046;28;20294;-73
2023/07/20 09:47:38;;;;;;;0.95;0.68;;;20.30;1.00;;;;;;4994915;28;20287;-73
2023/07/20 09:50:10;;;;;;;1.08;0.70;;;20.20;1.00;;;;;;4977186;28;20189;-74
2023/07/20 09:52:40;;;;;;;1.30;0.70;;;20.10;1.00;;;;;;4999678;28;20191;-74
2023/07/20 09:55:09;;;;;;;1.27;0.60;;;19.60;1.00;;;;;;4993770;28;20208;-74
2023/07/20 09:57:35;;;;;;;0.88;0.60;;;19.40;1.00;;;;;;4995060;28;20192;-73
2023/07/20 10:00:08;;;;;;;1.88;0.65;;;19.40;1.00;;;;;;4996200;28;20187;-73
2023/07/20 10:02:45;;;;;;;0.52;0.35;;;19.40;1.00;;;;;;4999332;28;20199;-72
2023/07/20 10:05:16;;;;;;;0.70;0.60;;;19.80;1.00;;;;;;4990935;28;20235;-72
2023/07/20 10:07:50;;;;;;;0.52;0.50;;;19.70;1.00;;;;;;4995938;28;20266;-72
2023/07/20 10:10:18;;;;;;;0.65;0.45;;;19.60;1.00;;;;;;4992646;28;20719;-71
2023/07/20 10:12:46;;;;;;;0.68;0.55;;;19.80;1.00;;;;;;4990498;28;20230;-73
2023/07/20 10:15:19;;;;;;;0.55;0.55;;;19.90;1.00;;;;;;4976995;28;20211;-72
2023/07/20 10:18:12;;;;;;;0.73;0.60;;;19.90;1.00;;;;;;4999526;28;20187;-72
2023/07/20 10:20:41;;;;;;;1.05;0.50;;;19.70;1.00;;;;;;4931450;28;20535;-73
2023/07/20 10:23:07;;;;;;;0.65;0.50;;;19.80;1.00;;;;;;4994413;28;20310;-72
2023/07/20 10:25:37;;;;;;;0.40;0.40;;;20.00;1.00;;;;;;4978066;28;20232;-72
2023/07/20 10:28:06;;;;;;;2.17;0.57;;;20.10;1.00;;;;;;4998650;28;20367;-73
2023/07/20 10:30:34;;;;;;;0.63;0.43;;;20.40;1.00;;;;;;5001033;28;20172;-72
2023/07/20 10:33:02;;;;;;;0.68;0.50;;;20.60;1.00;;;;;;4977031;28;20540;-72
2023/07/20 10:35:28;;;;;;;1.25;0.60;;;20.70;1.00;;;;;;4997498;28;20290;-72
2023/07/20 10:38:01;;;;;;;0.60;0.43;;;20.50;1.00;;;;;;4993835;28;20202;-73
2023/07/20 10:40:39;;;;;;;0.68;0.50;;;20.80;1.00;;;;;;4997772;28;20237;-72
2023/07/20 10:43:09;;;;;;;0.40;0.40;;;21.10;1.00;;;;;;4994310;28;20203;-72
2023/07/20 10:45:53;;;;;;;0.80;0.55;;;21.70;1.00;;;;;;4997650;28;20228;-73
2023/07/20 10:48:21;;;;;;;0.70;0.68;;;21.80;1.00;;;;;;4995043;28;20203;-73
2023/07/20 10:51:19;;;;;;;1.02;0.50;;;22.00;1.00;;;;;;4997849;28;20589;-73
2023/07/20 10:53:44;;;;;;;0.77;0.50;;;22.00;1.00;;;;;;4995279;28;20218;-72
2023/07/20 10:56:15;;;;;;;0.47;0.40;;;22.20;1.00;;;;;;4977377;28;20306;-73
2023/07/20 10:58:41;;;;;;;1.67;0.50;;;21.80;1.00;;;;;;4995958;28;20535;-72
2023/07/20 11:01:12;;;;;;;0.77;0.50;;;21.80;1.00;;;;;;4997291;28;20188;-73
2023/07/20 11:03:40;;;;;;;0.40;0.40;;;21.30;1.00;;;;;;4997546;28;20674;-73
2023/07/20 11:06:27;;;;;;;0.60;0.50;;;21.10;1.00;;;;;;4991163;28;20259;-74
2023/07/20 11:09:16;;;;;;;0.68;0.50;;;21.00;1.00;;;;;;4991810;28;20694;-73
2023/07/20 11:11:48;;;;;;;1.45;0.45;;;21.00;1.00;;;;;;4996072;28;20632;-73
2023/07/20 11:14:25;;;;;;;0.47;0.47;;;20.80;1.00;;;;;;4998592;28;20183;-74
2023/07/20 11:16:52;;;;;;;0.68;0.60;;;20.80;1.00;;;;;;4991328;28;20189;-74
2023/07/20 11:19:25;;;;;;;0.70;0.60;;;20.90;1.00;;;;;;4984081;28;20203;-74
2023/07/20 11:21:55;;;;;;;0.40;0.40;;;21.20;1.00;;;;;;4992954;28;20267;-73
2023/07/20 11:24:22;;;;;;;1.20;0.50;;;21.40;1.00;;;;;;4987994;28;20204;-73
2023/07/20 11:26:48;;;;;;;1.25;0.73;;;21.50;1.00;;;;;;4992597;28;20191;-75
2023/07/20 11:29:23;;;;;;;2.42;0.60;;;21.40;1.00;;;;;;4997050;28;20191;-73
2023/07/20 11:31:49;;;;;;;0.55;0.50;;;21.40;1.00;;;;;;4993143;28;20980;-74
2023/07/20 11:34:18;;;;;;;0.50;0.50;;;21.50;1.00;;;;;;4985158;28;20188;-74
2023/07/20 11:36:49;;;;;;;1.05;0.57;;;21.50;1.00;;;;;;4991855;28;20188;-73
2023/07/20 11:39:16;;;;;;;0.85;0.52;;;21.60;1.00;;;;;;4995464;28;20666;-74
2023/07/20 11:41:51;;;;;;;1.15;0.50;;;21.80;1.00;;;;;;5000678;28;20294;-74
2023/07/20 11:44:17;;;;;;;0.40;0.40;;;22.30;1.00;;;;;;4991195;28;20537;-74
2023/07/20 11:46:44;;;;;;;0.73;0.50;;;22.70;1.00;;;;;;4990220;28;21331;-72
2023/07/20 11:49:10;;;;;;;1.85;0.50;;;22.90;1.00;;;;;;4993565;28;20546;-74
2023/07/20 11:51:37;;;;;;;0.50;0.40;;;23.00;1.00;;;;;;4989757;28;20557;-72
2023/07/20 11:54:05;;;;;;;0.60;0.60;;;23.10;1.00;;;;;;4994408;28;20221;-74
2023/07/20 11:56:31;;;;;;;0.90;0.70;;;23.00;1.00;;;;;;4989437;28;20319;-73
2023/07/20 11:58:59;;;;;;;1.05;0.50;;;22.70;1.00;;;;;;4968918;28;20282;-73
2023/07/20 12:01:31;;;;;;;0.88;0.65;;;22.40;1.00;;;;;;4988088;28;20664;-73
2023/07/20 12:03:59;;;;;;;0.40;0.40;;;22.20;1.00;;;;;;4995563;28;21062;-73
2023/07/20 12:06:27;;;;;;;1.30;0.70;;;21.70;1.00;;;;;;4995897;28;20621;-73
2023/07/20 12:08:57;;;;;;;0.57;0.45;;;21.60;1.00;;;;;;4995056;28;20930;-74
2023/07/20 12:11:37;;;;;;;0.70;0.60;;;21.50;1.00;;;;;;4995198;28;20788;-74
2023/07/20 12:14:03;;;;;;;1.15;0.70;;;21.50;1.00;;;;;;4995865;28;20230;-74
2023/07/20 12:16:30;;;;;;;1.52;0.57;;;21.60;1.00;;;;;;4996329;28;20184;-74
2023/07/20 12:19:11;;;;;;;0.70;0.63;;;21.60;1.00;;;;;;4993759;28;20246;-74
2023/07/20 12:21:39;;;;;;;0.93;0.60;;;21.90;1.00;;;;;;4996572;28;20198;-76
2023/07/20 12:24:06;;;;;;;1.42;0.63;;;22.20;1.00;;;;;;4993711;28;20188;-74
2023/07/20 12:26:33;;;;;;;0.77;0.60;;;22.30;1.00;;;;;;4992001;28;20180;-74
2023/07/20 12:28:59;;;;;;;1.23;0.68;;;22.20;1.00;;;;;;4993005;28;20203;-74
2023/07/20 12:31:26;;;;;;;1.05;0.45;;;21.90;1.00;;;;;;4991305;28;20541;-74
2023/07/20 12:34:00;;;;;;;0.70;0.70;;;21.90;1.00;;;;;;4992877;28;20560;-71
2023/07/20 12:36:27;;;;;;;2.50;0.73;;;21.90;1.00;;;;;;4993324;28;20192;-72
2023/07/20 12:38:53;;;;;;;1.00;0.50;;;21.90;1.00;;;;;;4978059;28;20192;-73
2023/07/20 12:41:19;;;;;;;0.40;0.40;;;22.00;1.00;;;;;;4996818;28;20191;-74
2023/07/20 12:43:45;;;;;;;0.47;0.47;;;22.10;1.00;;;;;;4996032;28;20208;-74
2023/07/20 12:46:13;;;;;;;0.60;0.50;;;22.20;1.00;;;;;;4996159;28;20579;-76
2023/07/20 12:48:41;;;;;;;0.65;0.52;;;21.90;1.00;;;;;;4995169;28;20206;-73
2023/07/20 12:51:11;;;;;;;1.17;0.50;;;21.70;1.00;;;;;;4992738;28;20204;-73
2023/07/20 12:53:37;;;;;;;3.10;0.60;;;21.40;1.00;;;;;;4996333;28;20180;-74
2023/07/20 12:56:03;;;;;;;0.70;0.68;;;21.30;1.00;;;;;;4998131;28;20253;-75